Aviation Digital Data Service (ADDS)

Output produced by METARs form (0627 UTC 19 March 2019)
found at http://www.aviationweather.gov/metar/data/
 
OOSA 190550Z 03011KT 350V050 7000 NSC 31/M02 Q1016 NOSIG
TAF OOSA 190540Z 1906/2012 35010KT 6000 NSC 
     BECMG 1910/1912 17008KT 
     BECMG 1915/1917 VRB03KT 
     BECMG 2006/2008 17010KT
       
OOMS 190550Z 31010KT CAVOK 24/13 Q1015 NOSIG
TAF OOMS 190500Z 1906/2012 31015KT 8000 NSC 
     BECMG 1916/1918 25007KT 
     BECMG 2006/2008 35012KT